sensor_id;sensor_type;location;lat;lon;timestamp;temperature;humidity
47757;SHT35;22147;52.388;13.390;2023-09-08T00:01:40;14.81;84.76
47757;SHT35;22147;52.388;13.390;2023-09-08T00:04:10;14.82;84.82
47757;SHT35;22147;52.388;13.390;2023-09-08T00:06:41;14.81;84.91
47757;SHT35;22147;52.388;13.390;2023-09-08T00:09:11;14.79;84.99
47757;SHT35;22147;52.388;13.390;2023-09-08T00:11:42;14.75;85.08
47757;SHT35;22147;52.388;13.390;2023-09-08T00:14:14;14.75;85.13
47757;SHT35;22147;52.388;13.390;2023-09-08T00:16:45;14.75;85.17
47757;SHT35;22147;52.388;13.390;2023-09-08T00:19:15;14.71;85.17
47757;SHT35;22147;52.388;13.390;2023-09-08T00:21:45;14.69;85.20
47757;SHT35;22147;52.388;13.390;2023-09-08T00:24:16;14.69;85.39
47757;SHT35;22147;52.388;13.390;2023-09-08T00:26:46;14.68;85.48
47757;SHT35;22147;52.388;13.390;2023-09-08T00:29:13;14.65;85.56
47757;SHT35;22147;52.388;13.390;2023-09-08T00:31:44;14.65;85.63
47757;SHT35;22147;52.388;13.390;2023-09-08T00:34:13;14.67;85.68
47757;SHT35;22147;52.388;13.390;2023-09-08T00:36:41;14.67;85.80
47757;SHT35;22147;52.388;13.390;2023-09-08T00:39:10;14.67;85.90
47757;SHT35;22147;52.388;13.390;2023-09-08T00:41:38;14.67;85.98
47757;SHT35;22147;52.388;13.390;2023-09-08T00:44:07;14.69;86.14
47757;SHT35;22147;52.388;13.390;2023-09-08T00:46:40;14.67;86.16
47757;SHT35;22147;52.388;13.390;2023-09-08T00:49:11;14.68;86.17
47757;SHT35;22147;52.388;13.390;2023-09-08T00:51:41;14.69;86.25
47757;SHT35;22147;52.388;13.390;2023-09-08T00:54:13;14.67;86.27
47757;SHT35;22147;52.388;13.390;2023-09-08T00:56:46;14.67;86.34
47757;SHT35;22147;52.388;13.390;2023-09-08T00:59:17;14.63;86.32
47757;SHT35;22147;52.388;13.390;2023-09-08T01:01:45;14.61;86.40
47757;SHT35;22147;52.388;13.390;2023-09-08T01:04:13;14.61;86.47
47757;SHT35;22147;52.388;13.390;2023-09-08T01:06:44;14.64;86.48
47757;SHT35;22147;52.388;13.390;2023-09-08T01:09:14;14.64;86.62
47757;SHT35;22147;52.388;13.390;2023-09-08T01:11:45;14.63;86.68
47757;SHT35;22147;52.388;13.390;2023-09-08T01:14:21;14.67;86.77
47757;SHT35;22147;52.388;13.390;2023-09-08T01:16:51;14.68;86.83
47757;SHT35;22147;52.388;13.390;2023-09-08T01:19:22;14.69;86.86
47757;SHT35;22147;52.388;13.390;2023-09-08T01:25:24;14.71;86.71
47757;SHT35;22147;52.388;13.390;2023-09-08T01:28:00;14.69;86.74
47757;SHT35;22147;52.388;13.390;2023-09-08T01:30:33;14.69;86.67
47757;SHT35;22147;52.388;13.390;2023-09-08T01:33:05;14.65;86.70
47757;SHT35;22147;52.388;13.390;2023-09-08T01:35:37;14.67;86.70
47757;SHT35;22147;52.388;13.390;2023-09-08T01:38:08;14.63;86.70
47757;SHT35;22147;52.388;13.390;2023-09-08T01:40:40;14.65;86.74
47757;SHT35;22147;52.388;13.390;2023-09-08T01:43:10;14.67;86.88
47757;SHT35;22147;52.388;13.390;2023-09-08T01:45:41;14.69;87.02
47757;SHT35;22147;52.388;13.390;2023-09-08T01:48:12;14.75;86.99
47757;SHT35;22147;52.388;13.390;2023-09-08T01:50:42;14.78;86.92
47757;SHT35;22147;52.388;13.390;2023-09-08T01:53:13;14.78;86.85
47757;SHT35;22147;52.388;13.390;2023-09-08T01:55:43;14.72;86.80
47757;SHT35;22147;52.388;13.390;2023-09-08T01:58:11;14.72;86.78
47757;SHT35;22147;52.388;13.390;2023-09-08T02:00:40;14.69;86.80
47757;SHT35;22147;52.388;13.390;2023-09-08T02:03:08;14.67;86.84
47757;SHT35;22147;52.388;13.390;2023-09-08T02:05:37;14.64;86.88
47757;SHT35;22147;52.388;13.390;2023-09-08T02:08:08;14.63;86.98
47757;SHT35;22147;52.388;13.390;2023-09-08T02:10:40;14.60;87.05
47757;SHT35;22147;52.388;13.390;2023-09-08T02:13:10;14.58;87.12
47757;SHT35;22147;52.388;13.390;2023-09-08T02:15:43;14.58;87.16
47757;SHT35;22147;52.388;13.390;2023-09-08T02:18:14;14.58;87.22
47757;SHT35;22147;52.388;13.390;2023-09-08T02:20:45;14.61;87.28
47757;SHT35;22147;52.388;13.390;2023-09-08T02:23:15;14.61;87.29
47757;SHT35;22147;52.388;13.390;2023-09-08T02:25:46;14.65;87.31
47757;SHT35;22147;52.388;13.390;2023-09-08T02:28:14;14.67;87.37
47757;SHT35;22147;52.388;13.390;2023-09-08T02:30:43;14.65;87.30
47757;SHT35;22147;52.388;13.390;2023-09-08T02:33:11;14.68;87.31
47757;SHT35;22147;52.388;13.390;2023-09-08T02:35:39;14.69;87.32
47757;SHT35;22147;52.388;13.390;2023-09-08T02:38:08;14.69;87.30
47757;SHT35;22147;52.388;13.390;2023-09-08T02:40:36;14.71;87.27
47757;SHT35;22147;52.388;13.390;2023-09-08T02:43:05;14.71;87.30
47757;SHT35;22147;52.388;13.390;2023-09-08T02:45:33;14.69;87.25
47757;SHT35;22147;52.388;13.390;2023-09-08T02:48:05;14.71;87.24
47757;SHT35;22147;52.388;13.390;2023-09-08T02:50:33;14.71;87.25
47757;SHT35;22147;52.388;13.390;2023-09-08T02:53:07;14.72;87.30
47757;SHT35;22147;52.388;13.390;2023-09-08T02:55:39;14.69;87.20
47757;SHT35;22147;52.388;13.390;2023-09-08T02:58:10;14.68;87.21
47757;SHT35;22147;52.388;13.390;2023-09-08T03:00:40;14.68;87.17
47757;SHT35;22147;52.388;13.390;2023-09-08T03:03:10;14.60;87.14
47757;SHT35;22147;52.388;13.390;2023-09-08T03:05:41;14.54;87.13
47757;SHT35;22147;52.388;13.390;2023-09-08T03:08:12;14.50;87.22
47757;SHT35;22147;52.388;13.390;2023-09-08T03:10:43;14.51;87.29
47757;SHT35;22147;52.388;13.390;2023-09-08T03:13:13;14.48;87.38
47757;SHT35;22147;52.388;13.390;2023-09-08T03:15:44;14.42;87.36
47757;SHT35;22147;52.388;13.390;2023-09-08T03:18:14;14.41;87.43
47757;SHT35;22147;52.388;13.390;2023-09-08T03:20:52;14.38;87.49
47757;SHT35;22147;52.388;13.390;2023-09-08T03:23:22;14.37;87.58
47757;SHT35;22147;52.388;13.390;2023-09-08T03:25:53;14.36;87.64
47757;SHT35;22147;52.388;13.390;2023-09-08T03:28:21;14.33;87.66
47757;SHT35;22147;52.388;13.390;2023-09-08T03:30:50;14.30;87.78
47757;SHT35;22147;52.388;13.390;2023-09-08T03:33:18;14.28;87.82
47757;SHT35;22147;52.388;13.390;2023-09-08T03:35:47;14.27;87.84
47757;SHT35;22147;52.388;13.390;2023-09-08T03:38:15;14.23;87.89
47757;SHT35;22147;52.388;13.390;2023-09-08T03:40:44;14.20;87.87
47757;SHT35;22147;52.388;13.390;2023-09-08T03:43:12;14.16;87.92
47757;SHT35;22147;52.388;13.390;2023-09-08T03:45:41;14.13;87.98
47757;SHT35;22147;52.388;13.390;2023-09-08T03:48:12;14.14;88.08
47757;SHT35;22147;52.388;13.390;2023-09-08T03:50:42;14.16;88.16
47757;SHT35;22147;52.388;13.390;2023-09-08T03:53:14;14.16;88.25
47757;SHT35;22147;52.388;13.390;2023-09-08T03:55:43;14.16;88.27
47757;SHT35;22147;52.388;13.390;2023-09-08T03:58:11;14.13;88.30
47757;SHT35;22147;52.388;13.390;2023-09-08T04:00:40;14.13;88.32
47757;SHT35;22147;52.388;13.390;2023-09-08T04:03:08;14.12;88.39
47757;SHT35;22147;52.388;13.390;2023-09-08T04:05:39;14.12;88.40
47757;SHT35;22147;52.388;13.390;2023-09-08T04:08:09;14.07;88.43
47757;SHT35;22147;52.388;13.390;2023-09-08T04:10:40;14.05;88.43
47757;SHT35;22147;52.388;13.390;2023-09-08T04:13:11;14.00;88.45
47757;SHT35;22147;52.388;13.390;2023-09-08T04:15:40;13.98;88.49
47757;SHT35;22147;52.388;13.390;2023-09-08T04:18:08;13.96;88.50
47757;SHT35;22147;52.388;13.390;2023-09-08T04:20:37;13.99;88.61
47757;SHT35;22147;52.388;13.390;2023-09-08T04:23:05;13.92;88.64
47757;SHT35;22147;52.388;13.390;2023-09-08T04:25:33;13.93;88.71
47757;SHT35;22147;52.388;13.390;2023-09-08T04:28:02;13.93;88.74
47757;SHT35;22147;52.388;13.390;2023-09-08T04:30:30;13.93;88.76
47757;SHT35;22147;52.388;13.390;2023-09-08T04:33:00;13.90;88.81
47757;SHT35;22147;52.388;13.390;2023-09-08T04:35:31;13.90;88.84
47757;SHT35;22147;52.388;13.390;2023-09-08T04:38:02;13.89;88.87
47757;SHT35;22147;52.388;13.390;2023-09-08T04:40:33;13.89;88.91
47757;SHT35;22147;52.388;13.390;2023-09-08T04:43:01;13.88;88.97
47757;SHT35;22147;52.388;13.390;2023-09-08T04:45:30;13.88;89.03
47757;SHT35;22147;52.388;13.390;2023-09-08T04:47:58;13.93;89.18
47757;SHT35;22147;52.388;13.390;2023-09-08T04:50:27;13.96;89.24
47757;SHT35;22147;52.388;13.390;2023-09-08T04:52:57;14.02;89.39
47757;SHT35;22147;52.388;13.390;2023-09-08T04:55:29;14.07;89.35
47757;SHT35;22147;52.388;13.390;2023-09-08T04:57:59;14.12;89.33
47757;SHT35;22147;52.388;13.390;2023-09-08T05:00:28;14.19;89.39
47757;SHT35;22147;52.388;13.390;2023-09-08T05:02:56;14.24;89.41
47757;SHT35;22147;52.388;13.390;2023-09-08T05:05:25;14.33;89.47
47757;SHT35;22147;52.388;13.390;2023-09-08T05:07:53;14.42;89.26
47757;SHT35;22147;52.388;13.390;2023-09-08T05:10:26;14.48;89.07
47757;SHT35;22147;52.388;13.390;2023-09-08T05:13:00;14.57;88.88
47757;SHT35;22147;52.388;13.390;2023-09-08T05:15:30;14.61;88.75
47757;SHT35;22147;52.388;13.390;2023-09-08T05:18:04;14.72;88.58
47757;SHT35;22147;52.388;13.390;2023-09-08T05:20:35;14.78;88.42
47757;SHT35;22147;52.388;13.390;2023-09-08T05:23:05;14.84;88.30
47757;SHT35;22147;52.388;13.390;2023-09-08T05:25:35;14.92;88.04
47757;SHT35;22147;52.388;13.390;2023-09-08T05:28:05;15.03;87.77
47757;SHT35;22147;52.388;13.390;2023-09-08T05:30:36;15.13;87.27
47757;SHT35;22147;52.388;13.390;2023-09-08T05:33:06;15.23;87.03
47757;SHT35;22147;52.388;13.390;2023-09-08T05:35:37;15.30;86.79
47757;SHT35;22147;52.388;13.390;2023-09-08T05:38:08;15.37;86.51
47757;SHT35;22147;52.388;13.390;2023-09-08T05:40:39;15.49;86.37
47757;SHT35;22147;52.388;13.390;2023-09-08T05:43:09;15.58;85.79
47757;SHT35;22147;52.388;13.390;2023-09-08T05:45:40;15.68;85.29
47757;SHT35;22147;52.388;13.390;2023-09-08T05:48:10;15.81;85.01
47757;SHT35;22147;52.388;13.390;2023-09-08T05:50:43;15.94;84.79
47757;SHT35;22147;52.388;13.390;2023-09-08T05:53:10;16.04;84.39
47757;SHT35;22147;52.388;13.390;2023-09-08T05:55:39;16.15;83.97
47757;SHT35;22147;52.388;13.390;2023-09-08T05:58:07;16.28;83.32
47757;SHT35;22147;52.388;13.390;2023-09-08T06:00:35;16.42;83.24
47757;SHT35;22147;52.388;13.390;2023-09-08T06:03:07;16.55;82.26
47757;SHT35;22147;52.388;13.390;2023-09-08T06:05:35;16.70;82.10
47757;SHT35;22147;52.388;13.390;2023-09-08T06:08:04;16.81;81.39
47757;SHT35;22147;52.388;13.390;2023-09-08T06:10:38;16.94;81.16
47757;SHT35;22147;52.388;13.390;2023-09-08T06:13:09;17.12;80.80
47757;SHT35;22147;52.388;13.390;2023-09-08T06:15:40;17.28;79.94
47757;SHT35;22147;52.388;13.390;2023-09-08T06:18:12;17.34;79.47
47757;SHT35;22147;52.388;13.390;2023-09-08T06:20:48;17.52;79.49
47757;SHT35;22147;52.388;13.390;2023-09-08T06:23:20;17.71;78.93
47757;SHT35;22147;52.388;13.390;2023-09-08T06:25:56;17.88;78.14
47757;SHT35;22147;52.388;13.390;2023-09-08T06:28:30;18.11;77.62
47757;SHT35;22147;52.388;13.390;2023-09-08T06:31:00;18.38;76.97
47757;SHT35;22147;52.388;13.390;2023-09-08T06:33:31;18.59;76.20
47757;SHT35;22147;52.388;13.390;2023-09-08T06:36:02;18.76;75.63
47757;SHT35;22147;52.388;13.390;2023-09-08T06:38:33;18.90;75.34
47757;SHT35;22147;52.388;13.390;2023-09-08T06:41:12;19.14;74.36
47757;SHT35;22147;52.388;13.390;2023-09-08T06:43:44;19.35;74.35
47757;SHT35;22147;52.388;13.390;2023-09-08T06:46:15;19.62;73.39
47757;SHT35;22147;52.388;13.390;2023-09-08T06:48:45;19.93;72.35
47757;SHT35;22147;52.388;13.390;2023-09-08T06:51:16;20.16;72.10
47757;SHT35;22147;52.388;13.390;2023-09-08T06:53:56;20.55;71.17
47757;SHT35;22147;52.388;13.390;2023-09-08T06:56:25;20.84;70.20
47757;SHT35;22147;52.388;13.390;2023-09-08T06:58:53;20.87;69.28
47757;SHT35;22147;52.388;13.390;2023-09-08T07:01:22;21.09;69.04
47757;SHT35;22147;52.388;13.390;2023-09-08T07:03:50;21.32;68.06
47757;SHT35;22147;52.388;13.390;2023-09-08T07:06:19;21.63;66.95
47757;SHT35;22147;52.388;13.390;2023-09-08T07:08:50;21.81;66.64
47757;SHT35;22147;52.388;13.390;2023-09-08T07:11:19;21.87;66.37
47757;SHT35;22147;52.388;13.390;2023-09-08T07:13:47;22.00;65.92
47757;SHT35;22147;52.388;13.390;2023-09-08T07:16:15;22.26;64.85
47757;SHT35;22147;52.388;13.390;2023-09-08T07:18:44;22.52;63.69
47757;SHT35;22147;52.388;13.390;2023-09-08T07:21:12;22.58;64.00
47757;SHT35;22147;52.388;13.390;2023-09-08T07:23:43;22.83;62.46
47757;SHT35;22147;52.388;13.390;2023-09-08T07:26:13;23.10;62.59
47757;SHT35;22147;52.388;13.390;2023-09-08T07:28:47;23.37;61.71
47757;SHT35;22147;52.388;13.390;2023-09-08T07:31:18;23.49;61.13
47757;SHT35;22147;52.388;13.390;2023-09-08T07:33:49;23.57;61.34
47757;SHT35;22147;52.388;13.390;2023-09-08T07:36:20;23.83;61.15
47757;SHT35;22147;52.388;13.390;2023-09-08T07:38:50;23.92;60.32
47757;SHT35;22147;52.388;13.390;2023-09-08T07:41:20;24.04;58.96
47757;SHT35;22147;52.388;13.390;2023-09-08T07:43:51;24.22;58.91
47757;SHT35;22147;52.388;13.390;2023-09-08T07:46:21;24.29;58.56
47757;SHT35;22147;52.388;13.390;2023-09-08T07:48:52;24.47;58.08
47757;SHT35;22147;52.388;13.390;2023-09-08T07:51:22;24.74;59.06
47757;SHT35;22147;52.388;13.390;2023-09-08T07:53:53;24.89;56.98
47757;SHT35;22147;52.388;13.390;2023-09-08T07:56:24;25.15;56.07
47757;SHT35;22147;52.388;13.390;2023-09-08T07:58:54;25.14;56.75
47757;SHT35;22147;52.388;13.390;2023-09-08T08:01:24;25.30;55.82
47757;SHT35;22147;52.388;13.390;2023-09-08T08:03:54;25.47;55.53
47757;SHT35;22147;52.388;13.390;2023-09-08T08:06:25;25.22;55.45
47757;SHT35;22147;52.388;13.390;2023-09-08T08:08:55;25.56;54.92
47757;SHT35;22147;52.388;13.390;2023-09-08T08:11:28;25.90;55.61
47757;SHT35;22147;52.388;13.390;2023-09-08T08:13:58;26.17;54.73
47757;SHT35;22147;52.388;13.390;2023-09-08T08:16:28;26.17;54.00
47757;SHT35;22147;52.388;13.390;2023-09-08T08:18:59;26.11;53.37
47757;SHT35;22147;52.388;13.390;2023-09-08T08:21:29;26.35;54.10
47757;SHT35;22147;52.388;13.390;2023-09-08T08:24:00;26.68;51.89
47757;SHT35;22147;52.388;13.390;2023-09-08T08:26:30;26.55;52.29
47757;SHT35;22147;52.388;13.390;2023-09-08T08:29:00;26.43;52.35
47757;SHT35;22147;52.388;13.390;2023-09-08T08:31:29;26.62;52.38
47757;SHT35;22147;52.388;13.390;2023-09-08T08:33:57;26.86;51.45
47757;SHT35;22147;52.388;13.390;2023-09-08T08:36:26;27.09;52.15
47757;SHT35;22147;52.388;13.390;2023-09-08T08:38:54;27.26;50.91
47757;SHT35;22147;52.388;13.390;2023-09-08T08:41:23;27.24;49.65
47757;SHT35;22147;52.388;13.390;2023-09-08T08:43:53;27.33;50.64
47757;SHT35;22147;52.388;13.390;2023-09-08T08:46:23;27.49;50.70
47757;SHT35;22147;52.388;13.390;2023-09-08T08:48:54;27.59;49.65
47757;SHT35;22147;52.388;13.390;2023-09-08T08:51:28;27.51;50.90
47757;SHT35;22147;52.388;13.390;2023-09-08T08:53:59;27.64;50.49
47757;SHT35;22147;52.388;13.390;2023-09-08T08:56:37;27.90;50.81
47757;SHT35;22147;52.388;13.390;2023-09-08T08:59:09;27.69;49.07
47757;SHT35;22147;52.388;13.390;2023-09-08T09:01:42;27.81;49.84
47757;SHT35;22147;52.388;13.390;2023-09-08T09:04:14;27.88;48.92
47757;SHT35;22147;52.388;13.390;2023-09-08T09:06:43;27.71;48.86
47757;SHT35;22147;52.388;13.390;2023-09-08T09:09:14;27.79;50.18
47757;SHT35;22147;52.388;13.390;2023-09-08T09:11:44;27.89;48.49
47757;SHT35;22147;52.388;13.390;2023-09-08T09:14:14;28.00;49.04
47757;SHT35;22147;52.388;13.390;2023-09-08T09:16:46;28.29;48.84
47757;SHT35;22147;52.388;13.390;2023-09-08T09:19:23;28.37;46.92
47757;SHT35;22147;52.388;13.390;2023-09-08T09:22:01;28.19;46.38
47757;SHT35;22147;52.388;13.390;2023-09-08T09:24:40;28.00;47.39
47757;SHT35;22147;52.388;13.390;2023-09-08T09:27:14;28.02;46.62
47757;SHT35;22147;52.388;13.390;2023-09-08T09:29:50;27.93;47.81
47757;SHT35;22147;52.388;13.390;2023-09-08T09:32:24;28.05;47.50
47757;SHT35;22147;52.388;13.390;2023-09-08T09:34:58;28.15;48.02
47757;SHT35;22147;52.388;13.390;2023-09-08T09:37:31;28.17;47.21
47757;SHT35;22147;52.388;13.390;2023-09-08T09:40:01;27.92;47.43
47757;SHT35;22147;52.388;13.390;2023-09-08T09:42:40;28.20;48.58
47757;SHT35;22147;52.388;13.390;2023-09-08T09:45:10;28.26;46.91
47757;SHT35;22147;52.388;13.390;2023-09-08T09:47:41;28.51;47.39
47757;SHT35;22147;52.388;13.390;2023-09-08T09:50:09;28.36;46.81
47757;SHT35;22147;52.388;13.390;2023-09-08T09:52:39;28.48;48.23
47757;SHT35;22147;52.388;13.390;2023-09-08T09:55:11;28.70;47.45
47757;SHT35;22147;52.388;13.390;2023-09-08T09:57:42;28.63;47.46
47757;SHT35;22147;52.388;13.390;2023-09-08T10:00:13;28.64;46.95
47757;SHT35;22147;52.388;13.390;2023-09-08T10:02:46;28.67;46.62
47757;SHT35;22147;52.388;13.390;2023-09-08T10:05:18;28.80;46.60
47757;SHT35;22147;52.388;13.390;2023-09-08T10:07:50;28.96;46.40
47757;SHT35;22147;52.388;13.390;2023-09-08T10:10:22;28.63;45.17
47757;SHT35;22147;52.388;13.390;2023-09-08T10:13:02;28.61;46.01
47757;SHT35;22147;52.388;13.390;2023-09-08T10:15:32;28.50;46.37
47757;SHT35;22147;52.388;13.390;2023-09-08T10:18:05;28.80;46.83
47757;SHT35;22147;52.388;13.390;2023-09-08T10:20:39;29.03;45.39
47757;SHT35;22147;52.388;13.390;2023-09-08T10:23:36;28.91;44.34
47757;SHT35;22147;52.388;13.390;2023-09-08T10:26:16;28.88;45.54
47757;SHT35;22147;52.388;13.390;2023-09-08T10:28:47;29.02;45.04
47757;SHT35;22147;52.388;13.390;2023-09-08T10:31:18;28.94;44.41
47757;SHT35;22147;52.388;13.390;2023-09-08T10:33:49;28.95;44.64
47757;SHT35;22147;52.388;13.390;2023-09-08T10:36:20;28.88;44.43
47757;SHT35;22147;52.388;13.390;2023-09-08T10:38:51;28.88;45.08
47757;SHT35;22147;52.388;13.390;2023-09-08T10:44:01;28.81;44.59
47757;SHT35;22147;52.388;13.390;2023-09-08T10:46:32;29.03;44.39
47757;SHT35;22147;52.388;13.390;2023-09-08T10:49:07;28.92;42.28
47757;SHT35;22147;52.388;13.390;2023-09-08T10:51:39;28.94;44.24
47757;SHT35;22147;52.388;13.390;2023-09-08T10:54:10;28.88;44.31
47757;SHT35;22147;52.388;13.390;2023-09-08T10:56:56;28.96;43.74
47757;SHT35;22147;52.388;13.390;2023-09-08T10:59:35;28.95;44.56
47757;SHT35;22147;52.388;13.390;2023-09-08T11:02:05;29.03;44.93
47757;SHT35;22147;52.388;13.390;2023-09-08T11:04:36;28.87;43.02
47757;SHT35;22147;52.388;13.390;2023-09-08T11:07:07;28.90;42.63
47757;SHT35;22147;52.388;13.390;2023-09-08T11:09:36;28.73;43.36
47757;SHT35;22147;52.388;13.390;2023-09-08T11:12:07;28.71;43.65
47757;SHT35;22147;52.388;13.390;2023-09-08T11:14:35;28.70;43.58
47757;SHT35;22147;52.388;13.390;2023-09-08T11:17:04;28.61;42.85
47757;SHT35;22147;52.388;13.390;2023-09-08T11:19:51;28.70;43.53
47757;SHT35;22147;52.388;13.390;2023-09-08T11:22:25;28.65;43.21
47757;SHT35;22147;52.388;13.390;2023-09-08T11:24:57;28.73;42.75
47757;SHT35;22147;52.388;13.390;2023-09-08T11:27:29;28.63;44.32
47757;SHT35;22147;52.388;13.390;2023-09-08T11:30:00;28.64;43.77
47757;SHT35;22147;52.388;13.390;2023-09-08T11:32:35;28.61;43.23
47757;SHT35;22147;52.388;13.390;2023-09-08T11:35:09;28.61;44.06
47757;SHT35;22147;52.388;13.390;2023-09-08T11:37:41;28.56;44.22
47757;SHT35;22147;52.388;13.390;2023-09-08T11:40:15;28.47;43.19
47757;SHT35;22147;52.388;13.390;2023-09-08T11:42:46;28.50;44.27
47757;SHT35;22147;52.388;13.390;2023-09-08T11:45:17;28.40;43.36
47757;SHT35;22147;52.388;13.390;2023-09-08T11:47:52;28.37;43.19
47757;SHT35;22147;52.388;13.390;2023-09-08T11:50:24;28.43;44.24
47757;SHT35;22147;52.388;13.390;2023-09-08T11:52:54;28.37;44.58
47757;SHT35;22147;52.388;13.390;2023-09-08T11:55:25;28.25;43.95
47757;SHT35;22147;52.388;13.390;2023-09-08T11:57:56;28.32;42.55
47757;SHT35;22147;52.388;13.390;2023-09-08T12:00:29;28.32;42.97
47757;SHT35;22147;52.388;13.390;2023-09-08T12:03:14;28.37;43.25
47757;SHT35;22147;52.388;13.390;2023-09-08T12:05:52;28.47;43.72
47757;SHT35;22147;52.388;13.390;2023-09-08T12:08:25;28.48;43.24
47757;SHT35;22147;52.388;13.390;2023-09-08T12:10:57;28.60;44.46
47757;SHT35;22147;52.388;13.390;2023-09-08T12:13:27;28.59;43.27
47757;SHT35;22147;52.388;13.390;2023-09-08T12:15:58;28.32;43.92
47757;SHT35;22147;52.388;13.390;2023-09-08T12:18:40;28.27;44.39
47757;SHT35;22147;52.388;13.390;2023-09-08T12:21:11;28.36;44.25
47757;SHT35;22147;52.388;13.390;2023-09-08T12:23:53;28.27;44.48
47757;SHT35;22147;52.388;13.390;2023-09-08T12:26:27;28.36;46.00
47757;SHT35;22147;52.388;13.390;2023-09-08T12:28:57;28.36;44.22
47757;SHT35;22147;52.388;13.390;2023-09-08T12:31:26;28.39;44.87
47757;SHT35;22147;52.388;13.390;2023-09-08T12:33:55;28.51;44.29
47757;SHT35;22147;52.388;13.390;2023-09-08T12:36:23;28.57;43.84
47757;SHT35;22147;52.388;13.390;2023-09-08T12:38:52;28.56;44.26
47757;SHT35;22147;52.388;13.390;2023-09-08T12:41:22;28.32;44.22
47757;SHT35;22147;52.388;13.390;2023-09-08T12:43:51;28.29;45.82
47757;SHT35;22147;52.388;13.390;2023-09-08T12:46:20;28.33;44.00
47757;SHT35;22147;52.388;13.390;2023-09-08T12:48:48;28.43;45.39
47757;SHT35;22147;52.388;13.390;2023-09-08T12:51:16;28.40;43.83
47757;SHT35;22147;52.388;13.390;2023-09-08T12:53:45;28.40;44.25
47757;SHT35;22147;52.388;13.390;2023-09-08T12:56:13;28.56;44.03
47757;SHT35;22147;52.388;13.390;2023-09-08T12:58:41;28.65;44.50
47757;SHT35;22147;52.388;13.390;2023-09-08T13:01:10;28.53;44.20
47757;SHT35;22147;52.388;13.390;2023-09-08T13:03:40;28.56;43.73
47757;SHT35;22147;52.388;13.390;2023-09-08T13:06:10;28.60;43.88
47757;SHT35;22147;52.388;13.390;2023-09-08T13:08:40;28.73;44.49
47757;SHT35;22147;52.388;13.390;2023-09-08T13:11:10;28.71;43.41
47757;SHT35;22147;52.388;13.390;2023-09-08T13:13:40;28.81;44.68
47757;SHT35;22147;52.388;13.390;2023-09-08T13:16:09;28.87;42.64
47757;SHT35;22147;52.388;13.390;2023-09-08T13:18:40;28.85;43.06
47757;SHT35;22147;52.388;13.390;2023-09-08T13:21:11;29.07;44.13
47757;SHT35;22147;52.388;13.390;2023-09-08T13:23:41;29.14;43.24
47757;SHT35;22147;52.388;13.390;2023-09-08T13:26:11;29.18;42.50
47757;SHT35;22147;52.388;13.390;2023-09-08T13:28:42;29.14;42.67
47757;SHT35;22147;52.388;13.390;2023-09-08T13:31:11;29.07;41.96
47757;SHT35;22147;52.388;13.390;2023-09-08T13:33:41;29.07;42.95
47757;SHT35;22147;52.388;13.390;2023-09-08T13:36:11;29.02;43.42
47757;SHT35;22147;52.388;13.390;2023-09-08T13:38:41;29.11;43.56
47757;SHT35;22147;52.388;13.390;2023-09-08T13:41:11;29.08;43.38
47757;SHT35;22147;52.388;13.390;2023-09-08T13:43:41;29.23;42.11
47757;SHT35;22147;52.388;13.390;2023-09-08T13:46:15;29.12;42.14
47757;SHT35;22147;52.388;13.390;2023-09-08T13:48:45;29.07;42.36
47757;SHT35;22147;52.388;13.390;2023-09-08T13:51:15;29.23;43.47
47757;SHT35;22147;52.388;13.390;2023-09-08T13:53:50;29.14;41.81
47757;SHT35;22147;52.388;13.390;2023-09-08T13:56:17;29.47;42.80
47757;SHT35;22147;52.388;13.390;2023-09-08T13:58:49;29.65;42.38
47757;SHT35;22147;52.388;13.390;2023-09-08T14:01:24;29.56;41.35
47757;SHT35;22147;52.388;13.390;2023-09-08T14:04:04;29.67;41.83
47757;SHT35;22147;52.388;13.390;2023-09-08T14:06:37;29.83;40.53
47757;SHT35;22147;52.388;13.390;2023-09-08T14:09:13;30.10;40.84
47757;SHT35;22147;52.388;13.390;2023-09-08T14:11:46;30.00;40.42
47757;SHT35;22147;52.388;13.390;2023-09-08T14:14:19;30.17;40.11
47757;SHT35;22147;52.388;13.390;2023-09-08T14:16:51;30.35;39.67
47757;SHT35;22147;52.388;13.390;2023-09-08T14:19:21;30.51;39.65
47757;SHT35;22147;52.388;13.390;2023-09-08T14:21:52;30.45;39.08
47757;SHT35;22147;52.388;13.390;2023-09-08T14:24:23;30.28;38.90
47757;SHT35;22147;52.388;13.390;2023-09-08T14:26:53;30.32;39.64
47757;SHT35;22147;52.388;13.390;2023-09-08T14:29:24;30.35;38.83
47757;SHT35;22147;52.388;13.390;2023-09-08T14:31:54;30.39;39.15
47757;SHT35;22147;52.388;13.390;2023-09-08T14:34:24;30.49;39.04
47757;SHT35;22147;52.388;13.390;2023-09-08T14:36:55;30.64;40.32
47757;SHT35;22147;52.388;13.390;2023-09-08T14:39:25;30.89;39.65
47757;SHT35;22147;52.388;13.390;2023-09-08T14:41:55;30.94;38.11
47757;SHT35;22147;52.388;13.390;2023-09-08T14:44:26;30.75;38.35
47757;SHT35;22147;52.388;13.390;2023-09-08T14:46:56;30.75;38.72
47757;SHT35;22147;52.388;13.390;2023-09-08T14:49:27;30.66;38.18
47757;SHT35;22147;52.388;13.390;2023-09-08T14:51:57;30.78;39.16
47757;SHT35;22147;52.388;13.390;2023-09-08T14:54:27;30.96;39.73
47757;SHT35;22147;52.388;13.390;2023-09-08T14:56:58;31.13;38.99
47757;SHT35;22147;52.388;13.390;2023-09-08T14:59:29;31.02;37.95
47757;SHT35;22147;52.388;13.390;2023-09-08T15:01:57;30.89;37.91
47757;SHT35;22147;52.388;13.390;2023-09-08T15:04:26;30.85;37.77
47757;SHT35;22147;52.388;13.390;2023-09-08T15:06:54;31.00;39.08
47757;SHT35;22147;52.388;13.390;2023-09-08T15:09:23;31.06;38.92
47757;SHT35;22147;52.388;13.390;2023-09-08T15:11:51;31.24;39.11
47757;SHT35;22147;52.388;13.390;2023-09-08T15:14:20;30.97;38.25
47757;SHT35;22147;52.388;13.390;2023-09-08T15:16:48;31.03;38.41
47757;SHT35;22147;52.388;13.390;2023-09-08T15:19:16;31.20;39.15
47757;SHT35;22147;52.388;13.390;2023-09-08T15:21:45;31.38;38.24
47757;SHT35;22147;52.388;13.390;2023-09-08T15:24:13;31.33;37.46
47757;SHT35;22147;52.388;13.390;2023-09-08T15:26:42;31.17;37.84
47757;SHT35;22147;52.388;13.390;2023-09-08T15:29:11;31.40;39.06
47757;SHT35;22147;52.388;13.390;2023-09-08T15:31:43;31.71;37.35
47757;SHT35;22147;52.388;13.390;2023-09-08T15:34:12;31.79;37.39
47757;SHT35;22147;52.388;13.390;2023-09-08T15:36:41;31.70;36.60
47757;SHT35;22147;52.388;13.390;2023-09-08T15:39:10;31.20;37.86
47757;SHT35;22147;52.388;13.390;2023-09-08T15:41:38;30.85;38.38
47757;SHT35;22147;52.388;13.390;2023-09-08T15:44:07;30.52;38.44